N395T KSUA-KCRE
Flight info
| Callsign | N395T |
|---|---|
| Flight time | 1h 55m |
| Altitude | 16000 |
| Route | MLB V3 LLIPS V1 CRE |
| Aircraft | PC12/L-SDFGRWY/S |
Departure
| Time | 2026-05-05 23:56 |
|---|---|
| Airport | Witham Field (KSUA) |
Arrival
| Time | 2026-05-06 01:51 |
|---|---|
| Airport | Grand Strand Airport (KCRE) |
| Time | Latitude | Longitude | Altitude | Speed | Heading |
|---|---|---|---|---|---|
| 2026-05-05 23:42 | 27.17645 | -80.21955 | 20 ft | 0 kts | 203° |
| 2026-05-05 23:50 | 27.17642 | -80.21956 | 20 ft | 0 kts | 203° |
| 2026-05-05 23:51 | 27.17641 | -80.21957 | 20 ft | 1 kts | 203° |
| 2026-05-05 23:51 | 27.17635 | -80.21981 | 16 ft | 6 kts | 288° |
| 2026-05-05 23:51 | 27.17667 | -80.22012 | 21 ft | 7 kts | 9° |
| 2026-05-05 23:51 | 27.17706 | -80.22018 | 19 ft | 6 kts | 305° |
| 2026-05-05 23:52 | 27.17728 | -80.22082 | 19 ft | 12 kts | 291° |
| 2026-05-05 23:52 | 27.17760 | -80.22179 | 18 ft | 14 kts | 290° |
| 2026-05-05 23:52 | 27.17796 | -80.22287 | 16 ft | 16 kts | 290° |
| 2026-05-05 23:52 | 27.17861 | -80.22399 | 17 ft | 16 kts | 310° |
| 2026-05-05 23:53 | 27.17912 | -80.22507 | 18 ft | 16 kts | 290° |
| 2026-05-05 23:53 | 27.17953 | -80.22632 | 19 ft | 17 kts | 290° |
| 2026-05-05 23:53 | 27.17991 | -80.22745 | 20 ft | 13 kts | 290° |
| 2026-05-05 23:53 | 27.18023 | -80.22843 | 21 ft | 14 kts | 290° |
| 2026-05-05 23:54 | 27.18059 | -80.22953 | 20 ft | 8 kts | 290° |
| 2026-05-05 23:54 | 27.18101 | -80.22994 | 19 ft | 9 kts | 14° |
| 2026-05-05 23:54 | 27.18146 | -80.22963 | 20 ft | 6 kts | 65° |
| 2026-05-05 23:54 | 27.18164 | -80.22901 | 22 ft | 13 kts | 68° |
| 2026-05-05 23:55 | 27.18250 | -80.22663 | 23 ft | 55 kts | 68° |
| 2026-05-05 23:55 | 27.18440 | -80.22134 | 86 ft | 83 kts | 69° |
| 2026-05-05 23:55 | 27.18663 | -80.21524 | 368 ft | 86 kts | 68° |
| 2026-05-05 23:55 | 27.18894 | -80.20850 | 591 ft | 100 kts | 70° |
| 2026-05-05 23:56 | 27.19125 | -80.20046 | 862 ft | 116 kts | 71° |
| 2026-05-05 23:56 | 27.19643 | -80.19326 | 1324 ft | 125 kts | 36° |
| 2026-05-05 23:56 | 27.20470 | -80.19017 | 1778 ft | 133 kts | 11° |
| 2026-05-05 23:56 | 27.21438 | -80.19151 | 2110 ft | 149 kts | 350° |
| 2026-05-05 23:57 | 27.22444 | -80.19486 | 2556 ft | 153 kts | 342° |
| 2026-05-05 23:57 | 27.23419 | -80.19969 | 2994 ft | 152 kts | 341° |
| 2026-05-05 23:57 | 27.24387 | -80.20450 | 3484 ft | 152 kts | 339° |
| 2026-05-05 23:57 | 27.25361 | -80.20931 | 3953 ft | 154 kts | 338° |
| 2026-05-05 23:58 | 27.26348 | -80.21419 | 4449 ft | 155 kts | 336° |
| 2026-05-05 23:58 | 27.27336 | -80.21909 | 4941 ft | 155 kts | 335° |
| 2026-05-05 23:58 | 27.28319 | -80.22396 | 5437 ft | 154 kts | 334° |
| 2026-05-05 23:58 | 27.29299 | -80.22882 | 5936 ft | 154 kts | 332° |
| 2026-05-05 23:59 | 27.30282 | -80.23369 | 6417 ft | 155 kts | 332° |
| 2026-05-05 23:59 | 27.31269 | -80.23860 | 6764 ft | 163 kts | 333° |
| 2026-05-05 23:59 | 27.32340 | -80.24392 | 7056 ft | 172 kts | 333° |
| 2026-05-05 23:59 | 27.33462 | -80.24947 | 7340 ft | 180 kts | 333° |
| 2026-05-06 00:00 | 27.34625 | -80.25525 | 7638 ft | 185 kts | 333° |
| 2026-05-06 00:00 | 27.35811 | -80.26113 | 7933 ft | 189 kts | 333° |
| 2026-05-06 00:00 | 27.37026 | -80.26717 | 8228 ft | 192 kts | 333° |
| 2026-05-06 00:00 | 27.38258 | -80.27329 | 8528 ft | 193 kts | 333° |
| 2026-05-06 00:01 | 27.39494 | -80.27944 | 8830 ft | 195 kts | 333° |
| 2026-05-06 00:01 | 27.40736 | -80.28562 | 9132 ft | 196 kts | 333° |
| 2026-05-06 00:01 | 27.41982 | -80.29182 | 9435 ft | 196 kts | 333° |
| 2026-05-06 00:01 | 27.43235 | -80.29806 | 9705 ft | 198 kts | 333° |
| 2026-05-06 00:02 | 27.44504 | -80.30437 | 9956 ft | 200 kts | 333° |
| 2026-05-06 00:02 | 27.45766 | -80.31066 | 10188 ft | 201 kts | 333° |
| 2026-05-06 00:02 | 27.47052 | -80.31706 | 10419 ft | 203 kts | 333° |
| 2026-05-06 00:02 | 27.48340 | -80.32348 | 10651 ft | 203 kts | 333° |
| 2026-05-06 00:03 | 27.49640 | -80.32996 | 10889 ft | 204 kts | 333° |
| 2026-05-06 00:03 | 27.50937 | -80.33642 | 11129 ft | 204 kts | 333° |
| 2026-05-06 00:03 | 27.52233 | -80.34289 | 11368 ft | 204 kts | 333° |
| 2026-05-06 00:03 | 27.53533 | -80.34937 | 11613 ft | 204 kts | 333° |
| 2026-05-06 00:04 | 27.54832 | -80.35585 | 11848 ft | 204 kts | 333° |
| 2026-05-06 00:04 | 27.56130 | -80.36233 | 12090 ft | 204 kts | 334° |
| 2026-05-06 00:04 | 27.57429 | -80.36882 | 12337 ft | 204 kts | 334° |
| 2026-05-06 00:04 | 27.58730 | -80.37531 | 12582 ft | 205 kts | 334° |
| 2026-05-06 00:05 | 27.61340 | -80.38835 | 13086 ft | 206 kts | 334° |
| 2026-05-06 00:05 | 27.62649 | -80.39489 | 13338 ft | 206 kts | 334° |
| 2026-05-06 00:05 | 27.63973 | -80.40151 | 13594 ft | 207 kts | 334° |
| 2026-05-06 00:06 | 27.65293 | -80.40811 | 13850 ft | 208 kts | 334° |
| 2026-05-06 00:06 | 27.66617 | -80.41473 | 14076 ft | 208 kts | 334° |
| 2026-05-06 00:06 | 27.67924 | -80.42127 | 14303 ft | 208 kts | 334° |
| 2026-05-06 00:06 | 27.69250 | -80.42790 | 14536 ft | 208 kts | 334° |
| 2026-05-06 00:07 | 27.70576 | -80.43454 | 14759 ft | 208 kts | 334° |
| 2026-05-06 00:07 | 27.71901 | -80.44117 | 14997 ft | 208 kts | 334° |
| 2026-05-06 00:07 | 27.73225 | -80.44780 | 15238 ft | 208 kts | 333° |
| 2026-05-06 00:07 | 27.74546 | -80.45442 | 15470 ft | 208 kts | 333° |
| 2026-05-06 00:08 | 27.75868 | -80.46104 | 15710 ft | 207 kts | 333° |
| 2026-05-06 00:08 | 27.77189 | -80.46766 | 15949 ft | 207 kts | 333° |
| 2026-05-06 00:08 | 27.78532 | -80.47440 | 16003 ft | 215 kts | 333° |
| 2026-05-06 00:08 | 27.79932 | -80.48143 | 16005 ft | 223 kts | 333° |
| 2026-05-06 00:09 | 27.81376 | -80.48866 | 16013 ft | 229 kts | 333° |
| 2026-05-06 00:09 | 27.82828 | -80.49593 | 16015 ft | 233 kts | 333° |
| 2026-05-06 00:09 | 27.84321 | -80.50342 | 16021 ft | 236 kts | 333° |
| 2026-05-06 00:09 | 27.85831 | -80.51100 | 16016 ft | 238 kts | 333° |
| 2026-05-06 00:10 | 27.87333 | -80.51854 | 16022 ft | 239 kts | 333° |
| 2026-05-06 00:10 | 27.88875 | -80.52629 | 16018 ft | 241 kts | 333° |
| 2026-05-06 00:10 | 27.90410 | -80.53400 | 16018 ft | 242 kts | 333° |
| 2026-05-06 00:10 | 27.91950 | -80.54173 | 16019 ft | 242 kts | 333° |
| 2026-05-06 00:11 | 27.93492 | -80.54949 | 16020 ft | 242 kts | 333° |
| 2026-05-06 00:11 | 27.95036 | -80.55725 | 16023 ft | 243 kts | 333° |
| 2026-05-06 00:11 | 27.96585 | -80.56505 | 16013 ft | 243 kts | 333° |
| 2026-05-06 00:11 | 27.98112 | -80.57274 | 16015 ft | 243 kts | 333° |
| 2026-05-06 00:12 | 27.99666 | -80.58056 | 16015 ft | 243 kts | 333° |
| 2026-05-06 00:12 | 28.01220 | -80.58839 | 16016 ft | 244 kts | 333° |
| 2026-05-06 00:12 | 28.02750 | -80.59610 | 16017 ft | 244 kts | 333° |
| 2026-05-06 00:12 | 28.04299 | -80.60390 | 16011 ft | 244 kts | 333° |
| 2026-05-06 00:13 | 28.05846 | -80.61170 | 16017 ft | 243 kts | 333° |
| 2026-05-06 00:13 | 28.07393 | -80.61950 | 16016 ft | 243 kts | 333° |
| 2026-05-06 00:13 | 28.08941 | -80.62731 | 16019 ft | 243 kts | 333° |
| 2026-05-06 00:13 | 28.10487 | -80.63505 | 16015 ft | 243 kts | 334° |
| 2026-05-06 00:14 | 28.12081 | -80.64130 | 16015 ft | 243 kts | 338° |
| 2026-05-06 00:14 | 28.13674 | -80.64769 | 16018 ft | 243 kts | 337° |
| 2026-05-06 00:14 | 28.15269 | -80.65408 | 16015 ft | 243 kts | 338° |
| 2026-05-06 00:14 | 28.16873 | -80.66039 | 16018 ft | 243 kts | 338° |
| 2026-05-06 00:15 | 28.18475 | -80.66667 | 15995 ft | 244 kts | 338° |
| 2026-05-06 00:15 | 28.20061 | -80.67292 | 15997 ft | 244 kts | 338° |
| 2026-05-06 00:15 | 28.21667 | -80.67926 | 15997 ft | 245 kts | 338° |
| 2026-05-06 00:15 | 28.23276 | -80.68560 | 15999 ft | 245 kts | 338° |
| 2026-05-06 00:16 | 28.24893 | -80.69198 | 15997 ft | 246 kts | 338° |
| 2026-05-06 00:16 | 28.26506 | -80.69835 | 15994 ft | 245 kts | 338° |
| 2026-05-06 00:16 | 28.28125 | -80.70474 | 15995 ft | 246 kts | 338° |
| 2026-05-06 00:16 | 28.29747 | -80.71115 | 15994 ft | 247 kts | 338° |
| 2026-05-06 00:17 | 28.31369 | -80.71755 | 15994 ft | 247 kts | 338° |
| 2026-05-06 00:17 | 28.32989 | -80.72395 | 16000 ft | 246 kts | 338° |
| 2026-05-06 00:17 | 28.34609 | -80.73036 | 16001 ft | 247 kts | 338° |
| 2026-05-06 00:17 | 28.36236 | -80.73680 | 16032 ft | 247 kts | 338° |
| 2026-05-06 00:18 | 28.37861 | -80.74322 | 16032 ft | 247 kts | 338° |
| 2026-05-06 00:18 | 28.39464 | -80.74957 | 16032 ft | 247 kts | 338° |
| 2026-05-06 00:18 | 28.41107 | -80.75607 | 16033 ft | 248 kts | 338° |
| 2026-05-06 00:18 | 28.42724 | -80.76248 | 16027 ft | 248 kts | 338° |
| 2026-05-06 00:19 | 28.44360 | -80.76896 | 16037 ft | 249 kts | 338° |
| 2026-05-06 00:19 | 28.45992 | -80.77543 | 16030 ft | 248 kts | 338° |
| 2026-05-06 00:19 | 28.47622 | -80.78189 | 16032 ft | 248 kts | 338° |
| 2026-05-06 00:19 | 28.49249 | -80.78835 | 16032 ft | 247 kts | 338° |
| 2026-05-06 00:20 | 28.50873 | -80.79479 | 16036 ft | 246 kts | 338° |
| 2026-05-06 00:20 | 28.52485 | -80.80119 | 16030 ft | 247 kts | 338° |
| 2026-05-06 00:20 | 28.54111 | -80.80768 | 16030 ft | 245 kts | 338° |
| 2026-05-06 00:20 | 28.55722 | -80.81412 | 16033 ft | 245 kts | 338° |
| 2026-05-06 00:21 | 28.57216 | -80.82009 | 16031 ft | 246 kts | 338° |
| 2026-05-06 00:21 | 28.58931 | -80.82693 | 16031 ft | 246 kts | 338° |
| 2026-05-06 00:21 | 28.60545 | -80.83338 | 16027 ft | 246 kts | 338° |
| 2026-05-06 00:21 | 28.62163 | -80.83985 | 16029 ft | 246 kts | 338° |
| 2026-05-06 00:22 | 28.63779 | -80.84631 | 16032 ft | 246 kts | 338° |
| 2026-05-06 00:22 | 28.65392 | -80.85276 | 16005 ft | 245 kts | 338° |
| 2026-05-06 00:22 | 28.66995 | -80.85917 | 16006 ft | 243 kts | 338° |
| 2026-05-06 00:22 | 28.68586 | -80.86554 | 16007 ft | 242 kts | 338° |
| 2026-05-06 00:23 | 28.70177 | -80.87188 | 16008 ft | 243 kts | 338° |
| 2026-05-06 00:23 | 28.71781 | -80.87812 | 16009 ft | 244 kts | 338° |
| 2026-05-06 00:23 | 28.73387 | -80.88435 | 16008 ft | 244 kts | 338° |
| 2026-05-06 00:23 | 28.74986 | -80.89066 | 16010 ft | 243 kts | 338° |
| 2026-05-06 00:24 | 28.76581 | -80.89708 | 16012 ft | 243 kts | 338° |
| 2026-05-06 00:24 | 28.77642 | -80.90134 | 16019 ft | 244 kts | 338° |
| 2026-05-06 00:24 | 28.79789 | -80.90991 | 16022 ft | 244 kts | 338° |
| 2026-05-06 00:24 | 28.80850 | -80.91414 | 16022 ft | 243 kts | 338° |
| 2026-05-06 00:25 | 28.82969 | -80.92260 | 16022 ft | 243 kts | 338° |
| 2026-05-06 00:25 | 28.84048 | -80.92692 | 16022 ft | 242 kts | 338° |
| 2026-05-06 00:25 | 28.85621 | -80.93321 | 16025 ft | 242 kts | 338° |
| 2026-05-06 00:25 | 28.87210 | -80.93956 | 16026 ft | 242 kts | 338° |
| 2026-05-06 00:26 | 28.88801 | -80.94592 | 16027 ft | 242 kts | 338° |
| 2026-05-06 00:26 | 28.90389 | -80.95226 | 16029 ft | 242 kts | 338° |
| 2026-05-06 00:26 | 28.91974 | -80.95861 | 16028 ft | 241 kts | 338° |
| 2026-05-06 00:26 | 28.93563 | -80.96496 | 16031 ft | 241 kts | 338° |
| 2026-05-06 00:27 | 28.95134 | -80.97126 | 16033 ft | 241 kts | 338° |
| 2026-05-06 00:27 | 28.96733 | -80.97766 | 16032 ft | 241 kts | 338° |
| 2026-05-06 00:27 | 28.98317 | -80.98400 | 16033 ft | 241 kts | 338° |
| 2026-05-06 00:27 | 28.99903 | -80.99036 | 16035 ft | 241 kts | 338° |
| 2026-05-06 00:28 | 29.01467 | -80.99662 | 16035 ft | 241 kts | 338° |
| 2026-05-06 00:28 | 29.03047 | -81.00296 | 16034 ft | 241 kts | 338° |
| 2026-05-06 00:28 | 29.04633 | -81.00932 | 16036 ft | 241 kts | 338° |
| 2026-05-06 00:28 | 29.06216 | -81.01568 | 16034 ft | 241 kts | 338° |
| 2026-05-06 00:29 | 29.07798 | -81.02203 | 16036 ft | 241 kts | 338° |
| 2026-05-06 00:29 | 29.09346 | -81.02824 | 16034 ft | 241 kts | 338° |
| 2026-05-06 00:29 | 29.10964 | -81.03474 | 16034 ft | 241 kts | 338° |
| 2026-05-06 00:29 | 29.12551 | -81.04112 | 16035 ft | 241 kts | 338° |
| 2026-05-06 00:30 | 29.14136 | -81.04749 | 16034 ft | 241 kts | 338° |
| 2026-05-06 00:30 | 29.15712 | -81.05383 | 16035 ft | 241 kts | 338° |
| 2026-05-06 00:30 | 29.17304 | -81.06023 | 16034 ft | 241 kts | 338° |
| 2026-05-06 00:30 | 29.18885 | -81.06659 | 16035 ft | 241 kts | 338° |
| 2026-05-06 00:31 | 29.20468 | -81.07296 | 16035 ft | 241 kts | 338° |
| 2026-05-06 00:31 | 29.22034 | -81.07927 | 16036 ft | 241 kts | 338° |
| 2026-05-06 00:31 | 29.23635 | -81.08572 | 16034 ft | 241 kts | 338° |
| 2026-05-06 00:31 | 29.25198 | -81.09202 | 16035 ft | 241 kts | 338° |
| 2026-05-06 00:32 | 29.26783 | -81.09840 | 16037 ft | 241 kts | 338° |
| 2026-05-06 00:32 | 29.28366 | -81.10478 | 16036 ft | 241 kts | 338° |
| 2026-05-06 00:32 | 29.29952 | -81.11117 | 16035 ft | 241 kts | 338° |
| 2026-05-06 00:32 | 29.31588 | -81.11527 | 16034 ft | 242 kts | 347° |
| 2026-05-06 00:33 | 29.33254 | -81.11828 | 16033 ft | 242 kts | 347° |
| 2026-05-06 00:33 | 29.34921 | -81.12132 | 16033 ft | 243 kts | 347° |
| 2026-05-06 00:33 | 29.36585 | -81.12445 | 16034 ft | 243 kts | 347° |
| 2026-05-06 00:33 | 29.38254 | -81.12760 | 16032 ft | 243 kts | 347° |
| 2026-05-06 00:34 | 29.39919 | -81.13073 | 16035 ft | 243 kts | 347° |
| 2026-05-06 00:34 | 29.41584 | -81.13385 | 16036 ft | 242 kts | 347° |
| 2026-05-06 00:34 | 29.43249 | -81.13697 | 16033 ft | 243 kts | 347° |
| 2026-05-06 00:34 | 29.44916 | -81.14010 | 16032 ft | 243 kts | 347° |
| 2026-05-06 00:35 | 29.46564 | -81.14320 | 16034 ft | 243 kts | 347° |
| 2026-05-06 00:35 | 29.48234 | -81.14634 | 16036 ft | 242 kts | 347° |
| 2026-05-06 00:35 | 29.49895 | -81.14946 | 16035 ft | 241 kts | 347° |
| 2026-05-06 00:35 | 29.51552 | -81.15257 | 16035 ft | 241 kts | 347° |
| 2026-05-06 00:36 | 29.53206 | -81.15569 | 16034 ft | 241 kts | 347° |
| 2026-05-06 00:36 | 29.54858 | -81.15880 | 16039 ft | 241 kts | 347° |
| 2026-05-06 00:36 | 29.56508 | -81.16190 | 16038 ft | 240 kts | 347° |
| 2026-05-06 00:36 | 29.58160 | -81.16502 | 16038 ft | 240 kts | 347° |
| 2026-05-06 00:37 | 29.59806 | -81.16812 | 16036 ft | 240 kts | 347° |
| 2026-05-06 00:37 | 29.61455 | -81.17123 | 16037 ft | 240 kts | 347° |
| 2026-05-06 00:37 | 29.63102 | -81.17433 | 16037 ft | 240 kts | 347° |
| 2026-05-06 00:37 | 29.64746 | -81.17743 | 16038 ft | 240 kts | 347° |
| 2026-05-06 00:38 | 29.66377 | -81.18051 | 16040 ft | 240 kts | 347° |
| 2026-05-06 00:38 | 29.68021 | -81.18362 | 16039 ft | 240 kts | 347° |
| 2026-05-06 00:38 | 29.69670 | -81.18673 | 16039 ft | 240 kts | 347° |
| 2026-05-06 00:38 | 29.71315 | -81.18984 | 16035 ft | 240 kts | 347° |
| 2026-05-06 00:39 | 29.72962 | -81.19295 | 16039 ft | 240 kts | 347° |
| 2026-05-06 00:39 | 29.74588 | -81.19602 | 16043 ft | 240 kts | 347° |
| 2026-05-06 00:39 | 29.76256 | -81.19918 | 16042 ft | 240 kts | 347° |
| 2026-05-06 00:39 | 29.77901 | -81.20229 | 16043 ft | 240 kts | 347° |
| 2026-05-06 00:40 | 29.79547 | -81.20540 | 16041 ft | 240 kts | 347° |
| 2026-05-06 00:40 | 29.81173 | -81.20848 | 16040 ft | 240 kts | 347° |
| 2026-05-06 00:40 | 29.82823 | -81.21161 | 16041 ft | 240 kts | 347° |
| 2026-05-06 00:40 | 29.84472 | -81.21473 | 16042 ft | 240 kts | 347° |
| 2026-05-06 00:41 | 29.86122 | -81.21785 | 16044 ft | 240 kts | 347° |
| 2026-05-06 00:41 | 29.87768 | -81.22097 | 16043 ft | 240 kts | 347° |
| 2026-05-06 00:41 | 29.89414 | -81.22409 | 16044 ft | 240 kts | 347° |
| 2026-05-06 00:41 | 29.91065 | -81.22722 | 16044 ft | 240 kts | 347° |
| 2026-05-06 00:42 | 29.92684 | -81.23029 | 16043 ft | 240 kts | 347° |
| 2026-05-06 00:42 | 29.94340 | -81.23343 | 16044 ft | 240 kts | 347° |
| 2026-05-06 00:42 | 29.95989 | -81.23656 | 16043 ft | 240 kts | 347° |
| 2026-05-06 00:42 | 29.97633 | -81.23968 | 16045 ft | 240 kts | 347° |
| 2026-05-06 00:43 | 29.99277 | -81.24280 | 16045 ft | 240 kts | 347° |
| 2026-05-06 00:43 | 30.00923 | -81.24593 | 16045 ft | 239 kts | 347° |
| 2026-05-06 00:43 | 30.02571 | -81.24906 | 16044 ft | 240 kts | 347° |
| 2026-05-06 00:43 | 30.04219 | -81.25219 | 16044 ft | 239 kts | 347° |
| 2026-05-06 00:44 | 30.05864 | -81.25532 | 16043 ft | 239 kts | 347° |
| 2026-05-06 00:44 | 30.07512 | -81.25846 | 16044 ft | 240 kts | 347° |
| 2026-05-06 00:44 | 30.09159 | -81.26159 | 16042 ft | 240 kts | 347° |
| 2026-05-06 00:44 | 30.10783 | -81.26468 | 16039 ft | 240 kts | 347° |
| 2026-05-06 00:45 | 30.12431 | -81.26782 | 16042 ft | 240 kts | 347° |
| 2026-05-06 00:45 | 30.14083 | -81.27096 | 16041 ft | 240 kts | 347° |
| 2026-05-06 00:45 | 30.15733 | -81.27411 | 16042 ft | 240 kts | 347° |
| 2026-05-06 00:45 | 30.17385 | -81.27726 | 16037 ft | 240 kts | 347° |
| 2026-05-06 00:46 | 30.19037 | -81.28041 | 16039 ft | 240 kts | 347° |
| 2026-05-06 00:46 | 30.20687 | -81.28355 | 16031 ft | 240 kts | 347° |
| 2026-05-06 00:46 | 30.22317 | -81.28666 | 16034 ft | 240 kts | 347° |
| 2026-05-06 00:46 | 30.23967 | -81.28981 | 16031 ft | 240 kts | 347° |
| 2026-05-06 00:47 | 30.25617 | -81.29296 | 16033 ft | 240 kts | 347° |
| 2026-05-06 00:47 | 30.27268 | -81.29612 | 16034 ft | 240 kts | 347° |
| 2026-05-06 00:47 | 30.28920 | -81.29927 | 16036 ft | 240 kts | 347° |
| 2026-05-06 00:47 | 30.30571 | -81.30243 | 16034 ft | 240 kts | 347° |
| 2026-05-06 00:48 | 30.32224 | -81.30559 | 16034 ft | 241 kts | 347° |
| 2026-05-06 00:48 | 30.33877 | -81.30875 | 16034 ft | 240 kts | 347° |
| 2026-05-06 00:48 | 30.35526 | -81.31190 | 16035 ft | 240 kts | 347° |
| 2026-05-06 00:48 | 30.37177 | -81.31506 | 16035 ft | 240 kts | 347° |
| 2026-05-06 00:49 | 30.38824 | -81.31822 | 16034 ft | 240 kts | 347° |
| 2026-05-06 00:49 | 30.40478 | -81.32138 | 16036 ft | 240 kts | 347° |
| 2026-05-06 00:49 | 30.42129 | -81.32454 | 16035 ft | 241 kts | 347° |
| 2026-05-06 00:49 | 30.43780 | -81.32771 | 16034 ft | 241 kts | 347° |
| 2026-05-06 00:50 | 30.45433 | -81.33088 | 16034 ft | 241 kts | 347° |
| 2026-05-06 00:50 | 30.47085 | -81.33405 | 16035 ft | 241 kts | 347° |
| 2026-05-06 00:50 | 30.48740 | -81.33722 | 16034 ft | 241 kts | 347° |
| 2026-05-06 00:50 | 30.50375 | -81.34036 | 16036 ft | 241 kts | 347° |
| 2026-05-06 00:51 | 30.52022 | -81.34352 | 16042 ft | 241 kts | 347° |
| 2026-05-06 00:51 | 30.53680 | -81.34671 | 16042 ft | 241 kts | 347° |
| 2026-05-06 00:51 | 30.55331 | -81.34988 | 16043 ft | 241 kts | 347° |
| 2026-05-06 00:51 | 30.56983 | -81.35305 | 16044 ft | 241 kts | 347° |
| 2026-05-06 00:52 | 30.58636 | -81.35623 | 16045 ft | 241 kts | 347° |
| 2026-05-06 00:52 | 30.60293 | -81.35942 | 16047 ft | 241 kts | 347° |
| 2026-05-06 00:52 | 30.61945 | -81.36260 | 16044 ft | 241 kts | 347° |
| 2026-05-06 00:52 | 30.63598 | -81.36578 | 16044 ft | 241 kts | 347° |
| 2026-05-06 00:53 | 30.65252 | -81.36896 | 16045 ft | 241 kts | 347° |
| 2026-05-06 00:53 | 30.66928 | -81.36999 | 16039 ft | 246 kts | 4° |
| 2026-05-06 00:53 | 30.68580 | -81.36414 | 16042 ft | 249 kts | 14° |
| 2026-05-06 00:53 | 30.70206 | -81.35707 | 16042 ft | 250 kts | 15° |
| 2026-05-06 00:54 | 30.71839 | -81.34999 | 16043 ft | 251 kts | 15° |
| 2026-05-06 00:54 | 30.73463 | -81.34314 | 16042 ft | 251 kts | 14° |
| 2026-05-06 00:54 | 30.75109 | -81.33622 | 16041 ft | 251 kts | 15° |
| 2026-05-06 00:54 | 30.76755 | -81.32925 | 16039 ft | 252 kts | 15° |
| 2026-05-06 00:55 | 30.78400 | -81.32227 | 16038 ft | 252 kts | 15° |
| 2026-05-06 00:55 | 30.80049 | -81.31527 | 16036 ft | 252 kts | 15° |
| 2026-05-06 00:55 | 30.81696 | -81.30829 | 16036 ft | 252 kts | 15° |
| 2026-05-06 00:55 | 30.83342 | -81.30131 | 16033 ft | 252 kts | 15° |
| 2026-05-06 00:56 | 30.84971 | -81.29440 | 16033 ft | 252 kts | 15° |
| 2026-05-06 00:56 | 30.86622 | -81.28739 | 16039 ft | 252 kts | 15° |
| 2026-05-06 00:56 | 30.88269 | -81.28040 | 16026 ft | 252 kts | 15° |
| 2026-05-06 00:56 | 30.89914 | -81.27341 | 16026 ft | 252 kts | 15° |
| 2026-05-06 00:57 | 30.91556 | -81.26643 | 16026 ft | 252 kts | 15° |
| 2026-05-06 00:57 | 30.93217 | -81.25937 | 16028 ft | 252 kts | 15° |
| 2026-05-06 00:57 | 30.94865 | -81.25236 | 16023 ft | 252 kts | 15° |
| 2026-05-06 00:57 | 30.96515 | -81.24534 | 16022 ft | 252 kts | 15° |
| 2026-05-06 00:58 | 30.98165 | -81.23832 | 16026 ft | 252 kts | 15° |
| 2026-05-06 00:58 | 30.99814 | -81.23130 | 16028 ft | 252 kts | 15° |
| 2026-05-06 00:58 | 31.01467 | -81.22426 | 16027 ft | 252 kts | 15° |
| 2026-05-06 00:58 | 31.03116 | -81.21723 | 16023 ft | 253 kts | 15° |
| 2026-05-06 00:59 | 31.04767 | -81.21020 | 16028 ft | 253 kts | 15° |
| 2026-05-06 00:59 | 31.06417 | -81.20316 | 16026 ft | 253 kts | 15° |
| 2026-05-06 00:59 | 31.08074 | -81.19609 | 16026 ft | 253 kts | 15° |
| 2026-05-06 00:59 | 31.09726 | -81.18904 | 16030 ft | 253 kts | 15° |
| 2026-05-06 01:00 | 31.11355 | -81.18209 | 16030 ft | 253 kts | 15° |
| 2026-05-06 01:00 | 31.13009 | -81.17503 | 16027 ft | 253 kts | 15° |
| 2026-05-06 01:00 | 31.14663 | -81.16796 | 16028 ft | 253 kts | 15° |
| 2026-05-06 01:00 | 31.16319 | -81.16089 | 16025 ft | 253 kts | 15° |
| 2026-05-06 01:01 | 31.17976 | -81.15380 | 16027 ft | 253 kts | 15° |
| 2026-05-06 01:01 | 31.19628 | -81.14674 | 16034 ft | 253 kts | 15° |
| 2026-05-06 01:01 | 31.21262 | -81.13975 | 16026 ft | 253 kts | 15° |
| 2026-05-06 01:01 | 31.22916 | -81.13267 | 16027 ft | 253 kts | 15° |
| 2026-05-06 01:02 | 31.24572 | -81.12558 | 16019 ft | 253 kts | 15° |
| 2026-05-06 01:02 | 31.26224 | -81.11850 | 16021 ft | 253 kts | 15° |
| 2026-05-06 01:02 | 31.27877 | -81.11142 | 16021 ft | 253 kts | 15° |
| 2026-05-06 01:02 | 31.29529 | -81.10434 | 16025 ft | 253 kts | 15° |
| 2026-05-06 01:03 | 31.31184 | -81.09725 | 16022 ft | 253 kts | 15° |
| 2026-05-06 01:03 | 31.32836 | -81.09016 | 16023 ft | 253 kts | 15° |
| 2026-05-06 01:03 | 31.34489 | -81.08307 | 16027 ft | 253 kts | 15° |
| 2026-05-06 01:03 | 31.36125 | -81.07605 | 16024 ft | 253 kts | 15° |
| 2026-05-06 01:04 | 31.37780 | -81.06894 | 16033 ft | 253 kts | 15° |
| 2026-05-06 01:04 | 31.39433 | -81.06184 | 16023 ft | 253 kts | 15° |
| 2026-05-06 01:04 | 31.41087 | -81.05473 | 16023 ft | 253 kts | 15° |
| 2026-05-06 01:04 | 31.42744 | -81.04761 | 16023 ft | 253 kts | 15° |
| 2026-05-06 01:05 | 31.44400 | -81.04049 | 16028 ft | 253 kts | 15° |
| 2026-05-06 01:05 | 31.46055 | -81.03337 | 16022 ft | 253 kts | 15° |
| 2026-05-06 01:05 | 31.47712 | -81.02624 | 16022 ft | 253 kts | 15° |
| 2026-05-06 01:05 | 31.49368 | -81.01911 | 16019 ft | 253 kts | 15° |
| 2026-05-06 01:06 | 31.51027 | -81.01197 | 16031 ft | 253 kts | 15° |
| 2026-05-06 01:06 | 31.52684 | -81.00482 | 16024 ft | 254 kts | 15° |
| 2026-05-06 01:06 | 31.54320 | -80.99777 | 16029 ft | 253 kts | 15° |
| 2026-05-06 01:06 | 31.55976 | -80.99063 | 16033 ft | 254 kts | 15° |
| 2026-05-06 01:07 | 31.57631 | -80.98350 | 16021 ft | 253 kts | 15° |
| 2026-05-06 01:07 | 31.59285 | -80.97636 | 16028 ft | 253 kts | 15° |
| 2026-05-06 01:07 | 31.60943 | -80.96920 | 16017 ft | 253 kts | 15° |
| 2026-05-06 01:07 | 31.62598 | -80.96205 | 16024 ft | 253 kts | 15° |
| 2026-05-06 01:08 | 31.64255 | -80.95490 | 16025 ft | 253 kts | 15° |
| 2026-05-06 01:08 | 31.65915 | -80.94772 | 16019 ft | 253 kts | 15° |
| 2026-05-06 01:08 | 31.67569 | -80.94057 | 16018 ft | 253 kts | 15° |
| 2026-05-06 01:08 | 31.69225 | -80.93341 | 16021 ft | 253 kts | 15° |
| 2026-05-06 01:09 | 31.70885 | -80.92623 | 16020 ft | 253 kts | 15° |
| 2026-05-06 01:09 | 31.72516 | -80.91917 | 16017 ft | 253 kts | 15° |
| 2026-05-06 01:09 | 31.74171 | -80.91200 | 16016 ft | 254 kts | 15° |
| 2026-05-06 01:09 | 31.75826 | -80.90483 | 16016 ft | 254 kts | 15° |
| 2026-05-06 01:10 | 31.77486 | -80.89764 | 16016 ft | 254 kts | 15° |
| 2026-05-06 01:10 | 31.79142 | -80.89046 | 16016 ft | 254 kts | 15° |
| 2026-05-06 01:10 | 31.80795 | -80.88329 | 16016 ft | 254 kts | 15° |
| 2026-05-06 01:10 | 31.82452 | -80.87611 | 16015 ft | 254 kts | 15° |
| 2026-05-06 01:11 | 31.84084 | -80.86814 | 16010 ft | 255 kts | 25° |
| 2026-05-06 01:11 | 31.85084 | -80.86075 | 16012 ft | 257 kts | 28° |
| 2026-05-06 01:11 | 31.86571 | -80.84895 | 16009 ft | 258 kts | 29° |
| 2026-05-06 01:11 | 31.88064 | -80.83711 | 16012 ft | 258 kts | 28° |
| 2026-05-06 01:12 | 31.90052 | -80.82169 | 16013 ft | 258 kts | 28° |
| 2026-05-06 01:12 | 31.91045 | -80.81399 | 16017 ft | 259 kts | 28° |
| 2026-05-06 01:12 | 31.92550 | -80.80228 | 16020 ft | 259 kts | 28° |
| 2026-05-06 01:12 | 31.94054 | -80.79054 | 16029 ft | 259 kts | 28° |
| 2026-05-06 01:13 | 31.95562 | -80.77878 | 16031 ft | 259 kts | 28° |
| 2026-05-06 01:13 | 31.97065 | -80.76707 | 16035 ft | 259 kts | 28° |
| 2026-05-06 01:13 | 31.98566 | -80.75536 | 16037 ft | 259 kts | 28° |
| 2026-05-06 01:13 | 32.00074 | -80.74359 | 16040 ft | 259 kts | 28° |
| 2026-05-06 01:14 | 32.03057 | -80.72030 | 16042 ft | 259 kts | 28° |
| 2026-05-06 01:14 | 32.04562 | -80.70855 | 16045 ft | 259 kts | 28° |
| 2026-05-06 01:14 | 32.06066 | -80.69679 | 16046 ft | 259 kts | 28° |
| 2026-05-06 01:15 | 32.07568 | -80.68505 | 16049 ft | 259 kts | 28° |
| 2026-05-06 01:15 | 32.09069 | -80.67331 | 16051 ft | 259 kts | 28° |
| 2026-05-06 01:15 | 32.10572 | -80.66155 | 16050 ft | 259 kts | 28° |
| 2026-05-06 01:15 | 32.12055 | -80.64994 | 16053 ft | 259 kts | 28° |
| 2026-05-06 01:16 | 32.13574 | -80.63805 | 16051 ft | 259 kts | 28° |
| 2026-05-06 01:16 | 32.15057 | -80.62643 | 16049 ft | 259 kts | 28° |
| 2026-05-06 01:16 | 32.16566 | -80.61461 | 16006 ft | 260 kts | 28° |
| 2026-05-06 01:16 | 32.18067 | -80.60284 | 16008 ft | 259 kts | 28° |
| 2026-05-06 01:17 | 32.19573 | -80.59103 | 16006 ft | 259 kts | 28° |
| 2026-05-06 01:17 | 32.21075 | -80.57924 | 16007 ft | 259 kts | 28° |
| 2026-05-06 01:17 | 32.22579 | -80.56744 | 16007 ft | 259 kts | 28° |
| 2026-05-06 01:17 | 32.24076 | -80.55568 | 16007 ft | 259 kts | 28° |
| 2026-05-06 01:18 | 32.25581 | -80.54386 | 16007 ft | 259 kts | 28° |
| 2026-05-06 01:18 | 32.27078 | -80.53210 | 16007 ft | 259 kts | 28° |
| 2026-05-06 01:18 | 32.28583 | -80.52027 | 16004 ft | 259 kts | 28° |
| 2026-05-06 01:18 | 32.30082 | -80.50848 | 16007 ft | 259 kts | 28° |
| 2026-05-06 01:19 | 32.31565 | -80.49681 | 16004 ft | 259 kts | 28° |
| 2026-05-06 01:19 | 32.33062 | -80.48503 | 16008 ft | 259 kts | 28° |
| 2026-05-06 01:19 | 32.34561 | -80.47323 | 16005 ft | 259 kts | 28° |
| 2026-05-06 01:19 | 32.36063 | -80.46140 | 16006 ft | 259 kts | 28° |
| 2026-05-06 01:20 | 32.37560 | -80.44960 | 16003 ft | 259 kts | 28° |
| 2026-05-06 01:20 | 32.39061 | -80.43776 | 16002 ft | 259 kts | 29° |
| 2026-05-06 01:20 | 32.40561 | -80.42594 | 16006 ft | 259 kts | 28° |
| 2026-05-06 01:20 | 32.42061 | -80.41410 | 16004 ft | 259 kts | 29° |
| 2026-05-06 01:21 | 32.43558 | -80.40228 | 16004 ft | 259 kts | 28° |
| 2026-05-06 01:21 | 32.45060 | -80.39042 | 16002 ft | 259 kts | 28° |
| 2026-05-06 01:21 | 32.46540 | -80.37873 | 16003 ft | 259 kts | 29° |
| 2026-05-06 01:21 | 32.48041 | -80.36687 | 16003 ft | 259 kts | 28° |
| 2026-05-06 01:22 | 32.49540 | -80.35502 | 16001 ft | 259 kts | 29° |
| 2026-05-06 01:22 | 32.51043 | -80.34313 | 16001 ft | 259 kts | 28° |
| 2026-05-06 01:22 | 32.52539 | -80.33130 | 15998 ft | 259 kts | 28° |
| 2026-05-06 01:22 | 32.54038 | -80.31943 | 16003 ft | 259 kts | 29° |
| 2026-05-06 01:23 | 32.55537 | -80.30756 | 16005 ft | 259 kts | 29° |
| 2026-05-06 01:23 | 32.57038 | -80.29567 | 16007 ft | 259 kts | 29° |
| 2026-05-06 01:23 | 32.58536 | -80.28380 | 16006 ft | 259 kts | 29° |
| 2026-05-06 01:23 | 32.60039 | -80.27187 | 16009 ft | 259 kts | 29° |
| 2026-05-06 01:24 | 32.61520 | -80.26013 | 16011 ft | 259 kts | 29° |
| 2026-05-06 01:24 | 32.63016 | -80.24826 | 16011 ft | 259 kts | 29° |
| 2026-05-06 01:24 | 32.64517 | -80.23634 | 16012 ft | 259 kts | 29° |
| 2026-05-06 01:24 | 32.66018 | -80.22442 | 16012 ft | 259 kts | 29° |
| 2026-05-06 01:25 | 32.67514 | -80.21253 | 16015 ft | 259 kts | 29° |
| 2026-05-06 01:25 | 32.69017 | -80.20059 | 16017 ft | 260 kts | 29° |
| 2026-05-06 01:25 | 32.70518 | -80.18865 | 16012 ft | 260 kts | 29° |
| 2026-05-06 01:25 | 32.72020 | -80.17670 | 16013 ft | 260 kts | 29° |
| 2026-05-06 01:26 | 32.73524 | -80.16474 | 16015 ft | 260 kts | 29° |
| 2026-05-06 01:26 | 32.75026 | -80.15278 | 16016 ft | 260 kts | 29° |
| 2026-05-06 01:26 | 32.76525 | -80.14084 | 16015 ft | 260 kts | 29° |
| 2026-05-06 01:26 | 32.78009 | -80.12902 | 16018 ft | 260 kts | 29° |
| 2026-05-06 01:27 | 32.79500 | -80.11713 | 16009 ft | 260 kts | 29° |
| 2026-05-06 01:27 | 32.81012 | -80.10507 | 16008 ft | 260 kts | 29° |
| 2026-05-06 01:27 | 32.82514 | -80.09309 | 16010 ft | 260 kts | 29° |
| 2026-05-06 01:27 | 32.84014 | -80.08112 | 16010 ft | 260 kts | 29° |
| 2026-05-06 01:28 | 32.85514 | -80.06914 | 16008 ft | 260 kts | 29° |
| 2026-05-06 01:28 | 32.87013 | -80.05717 | 16009 ft | 260 kts | 29° |
| 2026-05-06 01:28 | 32.88513 | -80.04518 | 16011 ft | 260 kts | 29° |
| 2026-05-06 01:28 | 32.89904 | -80.03154 | 16006 ft | 263 kts | 43° |
| 2026-05-06 01:29 | 32.91095 | -80.01490 | 16008 ft | 264 kts | 45° |
| 2026-05-06 01:29 | 32.92271 | -79.99803 | 16008 ft | 265 kts | 45° |
| 2026-05-06 01:29 | 32.93464 | -79.98121 | 16010 ft | 265 kts | 45° |
| 2026-05-06 01:29 | 32.94662 | -79.96447 | 16009 ft | 265 kts | 45° |
| 2026-05-06 01:30 | 32.95856 | -79.94772 | 16010 ft | 266 kts | 45° |
| 2026-05-06 01:30 | 32.97035 | -79.93111 | 16010 ft | 266 kts | 45° |
| 2026-05-06 01:30 | 32.98230 | -79.91427 | 16010 ft | 266 kts | 45° |
| 2026-05-06 01:30 | 32.99426 | -79.89745 | 16015 ft | 266 kts | 45° |
| 2026-05-06 01:31 | 33.00619 | -79.88064 | 16015 ft | 266 kts | 45° |
| 2026-05-06 01:31 | 33.01815 | -79.86380 | 16014 ft | 266 kts | 45° |
| 2026-05-06 01:31 | 33.03007 | -79.84697 | 16014 ft | 266 kts | 45° |
| 2026-05-06 01:31 | 33.04204 | -79.83010 | 15920 ft | 269 kts | 45° |
| 2026-05-06 01:32 | 33.05430 | -79.81282 | 15708 ft | 276 kts | 45° |
| 2026-05-06 01:32 | 33.06678 | -79.79520 | 15489 ft | 280 kts | 45° |
| 2026-05-06 01:32 | 33.07938 | -79.77737 | 15274 ft | 282 kts | 45° |
| 2026-05-06 01:32 | 33.09192 | -79.75964 | 15062 ft | 284 kts | 46° |
| 2026-05-06 01:33 | 33.10467 | -79.74162 | 14853 ft | 285 kts | 46° |
| 2026-05-06 01:33 | 33.11748 | -79.72351 | 14640 ft | 285 kts | 46° |
| 2026-05-06 01:33 | 33.13029 | -79.70538 | 14427 ft | 285 kts | 46° |
| 2026-05-06 01:33 | 33.14311 | -79.68723 | 14218 ft | 285 kts | 46° |
| 2026-05-06 01:34 | 33.15586 | -79.66917 | 14012 ft | 285 kts | 46° |
| 2026-05-06 01:34 | 33.16866 | -79.65102 | 13791 ft | 285 kts | 46° |
| 2026-05-06 01:34 | 33.18142 | -79.63293 | 13561 ft | 285 kts | 46° |
| 2026-05-06 01:34 | 33.19418 | -79.61484 | 13331 ft | 284 kts | 46° |
| 2026-05-06 01:35 | 33.20688 | -79.59681 | 13105 ft | 283 kts | 46° |
| 2026-05-06 01:35 | 33.21958 | -79.57877 | 12870 ft | 283 kts | 46° |
| 2026-05-06 01:35 | 33.23221 | -79.56083 | 12649 ft | 282 kts | 46° |
| 2026-05-06 01:35 | 33.24483 | -79.54290 | 12422 ft | 281 kts | 47° |
| 2026-05-06 01:36 | 33.25741 | -79.52501 | 12204 ft | 281 kts | 47° |
| 2026-05-06 01:36 | 33.26982 | -79.50735 | 11981 ft | 280 kts | 47° |
| 2026-05-06 01:36 | 33.28233 | -79.48954 | 11766 ft | 280 kts | 47° |
| 2026-05-06 01:36 | 33.29488 | -79.47166 | 11543 ft | 280 kts | 47° |
| 2026-05-06 01:37 | 33.30734 | -79.45389 | 11325 ft | 279 kts | 47° |
| 2026-05-06 01:37 | 33.31980 | -79.43612 | 11111 ft | 278 kts | 47° |
| 2026-05-06 01:37 | 33.33224 | -79.41838 | 10895 ft | 278 kts | 48° |
| 2026-05-06 01:37 | 33.34463 | -79.40069 | 10685 ft | 277 kts | 48° |
| 2026-05-06 01:38 | 33.35700 | -79.38302 | 10472 ft | 277 kts | 48° |
| 2026-05-06 01:38 | 33.36937 | -79.36534 | 10261 ft | 277 kts | 48° |
| 2026-05-06 01:38 | 33.38169 | -79.34772 | 10055 ft | 276 kts | 49° |
| 2026-05-06 01:38 | 33.39401 | -79.33010 | 9821 ft | 276 kts | 49° |
| 2026-05-06 01:39 | 33.40632 | -79.31249 | 9592 ft | 275 kts | 49° |
| 2026-05-06 01:39 | 33.41863 | -79.29487 | 9363 ft | 276 kts | 49° |
| 2026-05-06 01:39 | 33.43090 | -79.27730 | 9130 ft | 275 kts | 49° |
| 2026-05-06 01:39 | 33.44318 | -79.25972 | 8906 ft | 275 kts | 49° |
| 2026-05-06 01:40 | 33.45529 | -79.24236 | 8682 ft | 275 kts | 49° |
| 2026-05-06 01:40 | 33.46767 | -79.22460 | 8450 ft | 274 kts | 50° |
| 2026-05-06 01:40 | 33.47970 | -79.20733 | 8243 ft | 272 kts | 50° |
| 2026-05-06 01:40 | 33.49177 | -79.19000 | 8049 ft | 269 kts | 50° |
| 2026-05-06 01:41 | 33.50371 | -79.17286 | 7852 ft | 266 kts | 50° |
| 2026-05-06 01:41 | 33.51556 | -79.15584 | 7659 ft | 265 kts | 50° |
| 2026-05-06 01:41 | 33.52739 | -79.13883 | 7466 ft | 264 kts | 50° |
| 2026-05-06 01:41 | 33.53902 | -79.12210 | 7278 ft | 264 kts | 50° |
| 2026-05-06 01:42 | 33.55078 | -79.10518 | 7088 ft | 263 kts | 50° |
| 2026-05-06 01:42 | 33.56250 | -79.08831 | 6852 ft | 264 kts | 51° |
| 2026-05-06 01:42 | 33.57426 | -79.07138 | 6620 ft | 265 kts | 51° |
| 2026-05-06 01:42 | 33.58601 | -79.05444 | 6371 ft | 261 kts | 51° |
| 2026-05-06 01:43 | 33.59751 | -79.03785 | 6118 ft | 258 kts | 51° |
| 2026-05-06 01:43 | 33.60901 | -79.02127 | 5875 ft | 256 kts | 51° |
| 2026-05-06 01:43 | 33.62040 | -79.00484 | 5627 ft | 255 kts | 52° |
| 2026-05-06 01:43 | 33.63154 | -78.98877 | 5474 ft | 251 kts | 52° |
| 2026-05-06 01:44 | 33.64280 | -78.97251 | 5323 ft | 249 kts | 52° |
| 2026-05-06 01:44 | 33.65369 | -78.95678 | 5178 ft | 247 kts | 52° |
| 2026-05-06 01:44 | 33.66536 | -78.94178 | 5004 ft | 247 kts | 45° |
| 2026-05-06 01:44 | 33.67822 | -78.92779 | 4750 ft | 251 kts | 43° |
| 2026-05-06 01:45 | 33.69137 | -78.91390 | 4491 ft | 252 kts | 43° |
| 2026-05-06 01:45 | 33.70463 | -78.90004 | 4242 ft | 252 kts | 43° |
| 2026-05-06 01:45 | 33.71773 | -78.88642 | 3991 ft | 247 kts | 43° |
| 2026-05-06 01:45 | 33.73066 | -78.87309 | 3744 ft | 244 kts | 43° |
| 2026-05-06 01:46 | 33.74344 | -78.86004 | 3451 ft | 236 kts | 43° |
| 2026-05-06 01:46 | 33.75576 | -78.84756 | 3147 ft | 228 kts | 43° |
| 2026-05-06 01:46 | 33.76784 | -78.83551 | 2814 ft | 224 kts | 43° |
| 2026-05-06 01:46 | 33.77971 | -78.82384 | 2491 ft | 213 kts | 43° |
| 2026-05-06 01:47 | 33.79054 | -78.81309 | 2260 ft | 195 kts | 44° |
| 2026-05-06 01:47 | 33.80049 | -78.80292 | 1990 ft | 186 kts | 45° |
| 2026-05-06 01:47 | 33.81038 | -78.79247 | 1839 ft | 191 kts | 46° |
| 2026-05-06 01:47 | 33.82010 | -78.78192 | 1803 ft | 184 kts | 46° |
| 2026-05-06 01:48 | 33.82906 | -78.77180 | 1685 ft | 169 kts | 47° |
| 2026-05-06 01:48 | 33.83701 | -78.76259 | 1680 ft | 149 kts | 49° |
| 2026-05-06 01:48 | 33.84377 | -78.75376 | 1582 ft | 138 kts | 58° |
| 2026-05-06 01:48 | 33.84830 | -78.74410 | 1429 ft | 125 kts | 77° |
| 2026-05-06 01:49 | 33.84986 | -78.73472 | 1252 ft | 109 kts | 96° |
| 2026-05-06 01:49 | 33.84904 | -78.72598 | 1050 ft | 102 kts | 114° |
| 2026-05-06 01:49 | 33.84285 | -78.71375 | 806 ft | 96 kts | 139° |
| 2026-05-06 01:50 | 33.83767 | -78.70896 | 795 ft | 90 kts | 157° |
| 2026-05-06 01:50 | 33.83184 | -78.70704 | 586 ft | 85 kts | 176° |
| 2026-05-06 01:50 | 33.82613 | -78.70805 | 366 ft | 82 kts | 200° |
| 2026-05-06 01:50 | 33.82164 | -78.71171 | 199 ft | 77 kts | 223° |
| 2026-05-06 01:51 | 33.81796 | -78.71626 | 58 ft | 73 kts | 226° |
| 2026-05-06 01:51 | 33.81474 | -78.72021 | 35 ft | 55 kts | 226° |
| 2026-05-06 01:51 | 33.81316 | -78.72217 | 35 ft | 19 kts | 226° |
| 2026-05-06 01:51 | 33.81251 | -78.72298 | 34 ft | 7 kts | 225° |
| 2026-05-06 01:52 | 33.81205 | -78.72289 | 34 ft | 8 kts | 139° |
| 2026-05-06 01:52 | 33.81175 | -78.72263 | 35 ft | 5 kts | 179° |
| 2026-05-06 01:52 | 33.81137 | -78.72280 | 35 ft | 7 kts | 158° |
| 2026-05-06 01:52 | 33.81103 | -78.72242 | 35 ft | 6 kts | 134° |
| 2026-05-06 01:53 | 33.81072 | -78.72207 | 36 ft | 6 kts | 140° |
| 2026-05-06 01:53 | 33.81049 | -78.72178 | 36 ft | 3 kts | 82° |
| 2026-05-06 01:53 | 33.81052 | -78.72173 | 36 ft | 0 kts | 46° |